Time;durP1;ratioP1;P1;durP2;ratioP2;P2;SDS_P1;SDS_P2;PMS_P1;PMS_P2;Temp;Humidity;BMP_temperature;BMP_pressure;BME280_temperature;BME280_humidity;BME280_pressure;Samples;Min_cycle;Max_cycle;Signal;HPM_P1;HPM_P2
2023/01/26 00:01:30;;;;;;;;;;;2.20;99.90;;;;;;5074805;28;19920;-70
2023/01/26 00:03:56;;;;;;;;;;;2.20;99.90;;;;;;5076517;28;19909;-70
2023/01/26 00:06:21;;;;;;;;;;;2.20;99.90;;;;;;5075428;28;20360;-70
2023/01/26 00:08:48;;;;;;;;;;;2.30;99.90;;;;;;5075392;28;19908;-70
2023/01/26 00:11:15;;;;;;;;;;;2.30;99.90;;;;;;5076829;28;19966;-70
2023/01/26 00:13:41;;;;;;;;;;;2.30;99.90;;;;;;5076602;28;19912;-70
2023/01/26 00:16:07;;;;;;;;;;;2.30;99.90;;;;;;5076707;28;20379;-70
2023/01/26 00:18:33;;;;;;;;;;;2.30;99.90;;;;;;5108868;28;19909;-70
2023/01/26 00:20:59;;;;;;;;;;;2.50;99.90;;;;;;5076283;28;19908;-70
2023/01/26 00:23:25;;;;;;;;;;;2.40;99.90;;;;;;5077672;28;19908;-70
2023/01/26 00:25:51;;;;;;;;;;;2.50;99.90;;;;;;5076992;28;19915;-70
2023/01/26 00:28:16;;;;;;;;;;;2.40;99.90;;;;;;5076167;28;20011;-70
2023/01/26 00:30:42;;;;;;;;;;;2.50;99.90;;;;;;5076471;28;19909;-70
2023/01/26 00:33:07;;;;;;;;;;;2.70;99.90;;;;;;5055756;28;20379;-70
2023/01/26 00:35:33;;;;;;;;;;;2.70;99.90;;;;;;5055126;28;20352;-70
2023/01/26 00:37:58;;;;;;;;;;;2.60;99.90;;;;;;5056352;28;19917;-71
2023/01/26 00:40:23;;;;;;;;;;;2.60;99.90;;;;;;5056432;28;19913;-71
2023/01/26 00:42:49;;;;;;;;;;;2.50;99.90;;;;;;5057170;28;19913;-70
2023/01/26 00:45:14;;;;;;;;;;;2.50;99.90;;;;;;5056595;28;19915;-70
2023/01/26 00:47:40;;;;;;;;;;;2.40;99.90;;;;;;5059233;28;19916;-70
2023/01/26 00:50:05;;;;;;;;;;;2.30;99.90;;;;;;5056629;28;19909;-70
2023/01/26 00:52:31;;;;;;;;;;;2.30;99.90;;;;;;5056179;28;19912;-70
2023/01/26 00:54:56;;;;;;;;;;;2.20;99.90;;;;;;5054549;28;20306;-71
2023/01/26 00:57:22;;;;;;;;;;;2.10;99.90;;;;;;5056291;28;19909;-70
2023/01/26 00:59:47;;;;;;;;;;;2.00;99.90;;;;;;5055983;28;19913;-71
2023/01/26 01:02:13;;;;;;;;;;;2.00;99.90;;;;;;5056642;28;20428;-70
2023/01/26 01:04:38;;;;;;;;;;;2.00;99.90;;;;;;5055817;28;19909;-69
2023/01/26 01:07:03;;;;;;;;;;;2.20;99.90;;;;;;5054657;28;20003;-71
2023/01/26 01:09:29;;;;;;;;;;;2.20;99.90;;;;;;5056353;28;19913;-70
2023/01/26 01:11:54;;;;;;;;;;;2.10;99.90;;;;;;5059699;28;19931;-70
2023/01/26 01:14:20;;;;;;;;;;;2.10;99.90;;;;;;5069756;28;19909;-70
2023/01/26 01:16:45;;;;;;;;;;;2.30;99.90;;;;;;5061444;28;19916;-69
2023/01/26 01:19:15;;;;;;;;;;;2.30;99.90;;;;;;5075977;28;19912;-70
2023/01/26 01:21:41;;;;;;;;;;;2.30;99.90;;;;;;5075549;28;19958;-70
2023/01/26 01:24:06;;;;;;;;;;;2.20;99.90;;;;;;5076220;28;20282;-70
2023/01/26 01:26:32;;;;;;;;;;;2.20;99.90;;;;;;5108297;28;19919;-70
2023/01/26 01:28:57;;;;;;;;;;;2.20;99.90;;;;;;5074005;28;19916;-70
2023/01/26 01:31:24;;;;;;;;;;;2.30;99.90;;;;;;5075729;28;19946;-70
2023/01/26 01:33:50;;;;;;;;;;;2.20;99.90;;;;;;5074963;28;20137;-70
2023/01/26 01:36:15;;;;;;;;;;;2.40;99.90;;;;;;5075478;28;20387;-70
2023/01/26 01:38:41;;;;;;;;;;;2.20;99.90;;;;;;5074682;28;19916;-70
2023/01/26 01:41:07;;;;;;;;;;;2.20;99.90;;;;;;5074049;28;19909;-70
2023/01/26 01:43:33;;;;;;;;;;;2.30;99.90;;;;;;5075134;28;19908;-70
2023/01/26 01:46:00;;;;;;;;;;;2.30;99.90;;;;;;5075221;28;19938;-70
2023/01/26 01:48:34;;;;;;;;;;;2.30;99.90;;;;;;5090681;28;19913;-71
2023/01/26 01:51:04;;;;;;;;;;;2.30;99.90;;;;;;5088316;28;19909;-70
2023/01/26 01:53:32;;;;;;;;;;;2.30;99.90;;;;;;5054877;28;19920;-70
2023/01/26 01:55:59;;;;;;;;;;;2.40;99.90;;;;;;5053914;28;19916;-70
2023/01/26 01:58:26;;;;;;;;;;;2.30;99.90;;;;;;5056067;28;19916;-70
2023/01/26 02:00:52;;;;;;;;;;;2.20;99.90;;;;;;5055101;28;20285;-71
2023/01/26 02:03:18;;;;;;;;;;;2.10;99.90;;;;;;5055039;28;19909;-71
2023/01/26 02:05:54;;;;;;;;;;;2.10;99.90;;;;;;5054310;28;19909;-70
2023/01/26 02:08:22;;;;;;;;;;;2.10;99.90;;;;;;5055620;28;20288;-70
2023/01/26 02:10:49;;;;;;;;;;;2.10;99.90;;;;;;5054944;28;20289;-70
2023/01/26 02:13:16;;;;;;;;;;;2.20;99.90;;;;;;5058036;28;19909;-70
2023/01/26 02:15:42;;;;;;;;;;;2.30;99.90;;;;;;5056375;28;19932;-70
2023/01/26 02:18:09;;;;;;;;;;;2.40;99.90;;;;;;5068581;28;19909;-70
2023/01/26 02:20:41;;;;;;;;;;;2.30;99.90;;;;;;5080758;28;19920;-70
2023/01/26 02:23:12;;;;;;;;;;;2.40;99.90;;;;;;5076997;28;19909;-71
2023/01/26 02:25:43;;;;;;;;;;;2.40;99.90;;;;;;5074837;28;19915;-70
2023/01/26 02:28:09;;;;;;;;;;;2.30;99.90;;;;;;5074449;28;19908;-70
2023/01/26 02:30:34;;;;;;;;;;;2.30;99.90;;;;;;5074678;28;19989;-70
2023/01/26 02:33:00;;;;;;;;;;;2.20;99.90;;;;;;5072793;28;19908;-71
2023/01/26 02:35:25;;;;;;;;;;;2.20;99.90;;;;;;5072926;28;20365;-70
2023/01/26 02:37:51;;;;;;;;;;;2.10;99.90;;;;;;5074383;28;19920;-71
2023/01/26 02:40:31;;;;;;;;;;;2.10;99.90;;;;;;5090997;22;19947;-73
2023/01/26 02:42:56;;;;;;;;;;;2.10;99.90;;;;;;5035283;28;19909;-74
2023/01/26 02:45:22;;;;;;;;;;;2.00;99.90;;;;;;5036757;28;20052;-74
2023/01/26 02:47:48;;;;;;;;;;;2.00;99.90;;;;;;5046099;28;19915;-74
2023/01/26 02:50:13;;;;;;;;;;;2.00;99.90;;;;;;5059259;28;19908;-74
2023/01/26 02:52:39;;;;;;;;;;;2.10;99.90;;;;;;5069447;28;19909;-73
2023/01/26 02:57:49;;;;;;;;;;;2.10;99.90;;;;;;5057206;28;19999;-73
2023/01/26 03:00:16;;;;;;;;;;;2.20;99.90;;;;;;5056083;28;19939;-73
2023/01/26 03:02:42;;;;;;;;;;;2.10;99.90;;;;;;5054513;28;20049;-73
2023/01/26 03:05:08;;;;;;;;;;;2.10;99.90;;;;;;5052716;28;19975;-73
2023/01/26 03:07:33;;;;;;;;;;;2.00;99.90;;;;;;5054031;28;20321;-73
2023/01/26 03:09:59;;;;;;;;;;;1.90;99.90;;;;;;5054971;28;19958;-74
2023/01/26 03:12:25;;;;;;;;;;;1.90;99.90;;;;;;5054876;28;19909;-74
2023/01/26 03:17:35;;;;;;;;;;;1.90;99.90;;;;;;5073600;28;19916;-73
2023/01/26 03:28:13;;;;;;;;;;;1.70;99.90;;;;;;5053550;28;19954;-73
2023/01/26 03:30:38;;;;;;;;;;;1.80;99.90;;;;;;5052069;28;20004;-73
2023/01/26 03:33:04;;;;;;;;;;;1.80;99.90;;;;;;5052065;28;19916;-73
2023/01/26 03:35:31;;;;;;;;;;;1.80;99.90;;;;;;5052179;28;19916;-74
2023/01/26 03:37:56;;;;;;;;;;;1.90;99.90;;;;;;5060901;28;20003;-73
2023/01/26 03:56:50;;;;;;;;;;;2.10;99.90;;;;;;5033194;28;20340;-73
2023/01/26 03:59:16;;;;;;;;;;;2.10;99.90;;;;;;5032131;28;19913;-74
2023/01/26 04:09:55;;;;;;;;;;;2.10;99.90;;;;;;5033425;28;20428;-73
2023/01/26 04:12:20;;;;;;;;;;;2.00;99.90;;;;;;5031714;28;19913;-73
2023/01/26 04:22:58;;;;;;;;;;;2.20;99.90;;;;;;5037983;28;20276;-73
2023/01/26 04:25:23;;;;;;;;;;;2.30;99.90;;;;;;5053031;28;19909;-73
2023/01/26 04:27:49;;;;;;;;;;;2.20;99.90;;;;;;5051539;28;20350;-73
2023/01/26 04:30:15;;;;;;;;;;;2.30;99.90;;;;;;5057438;28;19931;-73
2023/01/26 04:32:41;;;;;;;;;;;2.40;99.90;;;;;;5057842;28;19955;-74
2023/01/26 04:35:07;;;;;;;;;;;2.30;99.90;;;;;;5056743;28;19909;-74
2023/01/26 04:37:32;;;;;;;;;;;2.30;99.90;;;;;;5056760;28;19955;-73
2023/01/26 04:39:58;;;;;;;;;;;2.30;99.90;;;;;;5055296;28;19916;-73
2023/01/26 04:42:24;;;;;;;;;;;2.30;99.90;;;;;;5055306;28;19916;-73
2023/01/26 04:44:52;;;;;;;;;;;2.40;99.90;;;;;;5055760;28;19909;-73
2023/01/26 04:47:18;;;;;;;;;;;2.30;99.90;;;;;;5055392;28;20403;-73
2023/01/26 04:49:44;;;;;;;;;;;2.20;99.90;;;;;;5055277;28;19920;-72
2023/01/26 04:52:09;;;;;;;;;;;2.20;99.90;;;;;;5056737;28;19909;-74
2023/01/26 04:54:35;;;;;;;;;;;2.10;99.90;;;;;;5041352;28;19909;-74
2023/01/26 04:57:00;;;;;;;;;;;2.10;99.90;;;;;;5039479;28;19913;-73
2023/01/26 04:59:26;;;;;;;;;;;2.20;99.90;;;;;;5036658;28;19913;-72
2023/01/26 05:01:51;;;;;;;;;;;2.20;99.90;;;;;;5035000;28;19915;-72
2023/01/26 05:04:16;;;;;;;;;;;2.30;99.90;;;;;;5034978;28;19987;-73
2023/01/26 05:06:43;;;;;;;;;;;2.40;99.90;;;;;;5035954;28;20230;-73
2023/01/26 05:09:08;;;;;;;;;;;2.10;99.90;;;;;;5034692;28;19916;-73
2023/01/26 05:11:34;;;;;;;;;;;2.20;99.90;;;;;;5035490;28;20385;-74
2023/01/26 05:13:59;;;;;;;;;;;2.20;99.90;;;;;;5034908;28;20008;-73
2023/01/26 05:16:25;;;;;;;;;;;2.20;99.90;;;;;;5034719;28;19909;-73
2023/01/26 05:18:50;;;;;;;;;;;2.10;99.90;;;;;;5034247;28;19917;-73
2023/01/26 05:21:16;;;;;;;;;;;2.10;99.90;;;;;;5034561;28;19955;-73
2023/01/26 05:23:41;;;;;;;;;;;2.00;99.90;;;;;;5044857;28;19909;-73
2023/01/26 05:26:06;;;;;;;;;;;1.90;99.90;;;;;;5055160;28;20361;-73
2023/01/26 05:28:33;;;;;;;;;;;2.00;99.90;;;;;;5056490;28;19909;-73
2023/01/26 05:30:58;;;;;;;;;;;2.00;99.90;;;;;;5058979;28;19924;-73
2023/01/26 05:33:23;;;;;;;;;;;2.00;99.90;;;;;;5042296;28;19909;-72
2023/01/26 05:35:50;;;;;;;;;;;1.90;99.90;;;;;;5036415;28;19959;-73
2023/01/26 05:38:15;;;;;;;;;;;2.00;99.90;;;;;;5036827;28;19909;-73
2023/01/26 05:40:41;;;;;;;;;;;1.90;99.90;;;;;;5035839;28;20394;-72
2023/01/26 05:43:09;;;;;;;;;;;2.00;99.90;;;;;;5034613;28;19909;-73
2023/01/26 05:45:35;;;;;;;;;;;1.90;99.90;;;;;;5037711;28;19948;-72
2023/01/26 05:48:01;;;;;;;;;;;1.90;99.90;;;;;;5036028;28;19913;-72
2023/01/26 05:50:27;;;;;;;;;;;1.90;99.90;;;;;;5038894;28;19916;-73
2023/01/26 05:52:52;;;;;;;;;;;1.90;99.90;;;;;;5058241;28;20372;-73
2023/01/26 05:55:18;;;;;;;;;;;2.00;99.90;;;;;;5063198;28;19913;-73
2023/01/26 05:57:43;;;;;;;;;;;1.90;99.90;;;;;;5061053;28;19909;-72
2023/01/26 06:00:10;;;;;;;;;;;1.90;99.90;;;;;;5061022;28;20288;-73
2023/01/26 06:02:35;;;;;;;;;;;1.80;99.90;;;;;;5076197;28;19940;-74
2023/01/26 06:05:00;;;;;;;;;;;1.90;99.90;;;;;;5076912;28;20346;-72
2023/01/26 06:07:26;;;;;;;;;;;1.80;99.90;;;;;;5058156;28;20411;-75
2023/01/26 06:09:51;;;;;;;;;;;1.80;99.90;;;;;;5034323;28;20396;-75
2023/01/26 06:12:18;;;;;;;;;;;1.70;99.90;;;;;;5058180;28;19909;-75
2023/01/26 06:14:43;;;;;;;;;;;1.70;99.90;;;;;;5057279;28;20000;-72
2023/01/26 06:17:09;;;;;;;;;;;1.80;99.90;;;;;;5036592;28;19952;-74
2023/01/26 06:19:36;;;;;;;;;;;1.80;99.90;;;;;;5051386;28;19913;-74
2023/01/26 06:22:02;;;;;;;;;;;1.70;99.90;;;;;;5052405;28;20441;-74
2023/01/26 06:24:28;;;;;;;;;;;1.60;99.90;;;;;;5047681;28;19909;-72
2023/01/26 06:26:53;;;;;;;;;;;1.50;99.90;;;;;;5048221;28;20384;-71
2023/01/26 06:29:19;;;;;;;;;;;1.50;99.90;;;;;;5033013;28;20421;-72
2023/01/26 06:31:44;;;;;;;;;;;1.50;99.90;;;;;;5048390;28;20318;-73
2023/01/26 06:34:10;;;;;;;;;;;1.50;99.90;;;;;;5048902;28;20373;-74
2023/01/26 06:36:35;;;;;;;;;;;1.60;99.90;;;;;;5053730;28;19909;-74
2023/01/26 06:39:01;;;;;;;;;;;1.60;99.90;;;;;;5061755;28;21859;-74
2023/01/26 06:41:26;;;;;;;;;;;1.70;99.90;;;;;;5062762;28;19924;-73
2023/01/26 06:43:51;;;;;;;;;;;1.70;99.90;;;;;;5056357;28;19909;-74
2023/01/26 06:46:18;;;;;;;;;;;1.70;99.90;;;;;;5055282;28;19909;-74
2023/01/26 06:48:43;;;;;;;;;;;1.70;99.90;;;;;;5053898;28;19912;-75
2023/01/26 06:51:15;;;;;;;;;;;1.50;99.90;;;;;;5053575;28;20038;-73
2023/01/26 06:53:48;;;;;;;;;;;1.50;99.90;;;;;;5054377;28;19913;-74
2023/01/26 06:56:13;;;;;;;;;;;1.40;99.90;;;;;;5053448;28;19915;-74
2023/01/26 06:58:38;;;;;;;;;;;1.50;99.90;;;;;;5053295;28;19909;-71
2023/01/26 07:01:04;;;;;;;;;;;1.50;99.90;;;;;;5052480;28;19913;-71
2023/01/26 07:03:30;;;;;;;;;;;1.40;99.90;;;;;;5054021;28;20027;-71
2023/01/26 07:05:55;;;;;;;;;;;1.40;99.90;;;;;;5052288;28;19909;-70
2023/01/26 07:08:21;;;;;;;;;;;1.40;99.90;;;;;;5061041;28;19916;-71
2023/01/26 07:10:47;;;;;;;;;;;1.50;99.90;;;;;;5052569;28;19920;-72
2023/01/26 07:13:13;;;;;;;;;;;1.50;99.90;;;;;;5053753;28;20053;-72
2023/01/26 07:15:38;;;;;;;;;;;1.50;99.90;;;;;;5037748;28;19909;-71
2023/01/26 07:18:04;;;;;;;;;;;1.50;99.90;;;;;;5042892;28;19922;-71
2023/01/26 07:20:29;;;;;;;;;;;1.40;99.90;;;;;;5036020;28;19913;-72
2023/01/26 07:22:55;;;;;;;;;;;1.30;99.90;;;;;;5034108;28;20289;-71
2023/01/26 07:25:20;;;;;;;;;;;1.40;99.90;;;;;;5049432;28;19952;-72
2023/01/26 07:27:46;;;;;;;;;;;1.50;99.90;;;;;;5032851;28;19909;-71
2023/01/26 07:30:14;;;;;;;;;;;1.50;99.90;;;;;;5033202;28;19915;-72
2023/01/26 07:32:40;;;;;;;;;;;1.60;99.90;;;;;;5034002;28;19929;-70
2023/01/26 07:35:06;;;;;;;;;;;1.60;99.90;;;;;;5033829;28;19916;-71
2023/01/26 07:37:32;;;;;;;;;;;1.70;99.90;;;;;;5048680;28;19909;-71
2023/01/26 07:39:57;;;;;;;;;;;1.60;99.90;;;;;;5036096;28;19924;-70
2023/01/26 07:42:23;;;;;;;;;;;1.70;99.90;;;;;;5054179;28;19954;-71
2023/01/26 07:44:48;;;;;;;;;;;1.60;99.90;;;;;;5053598;28;20254;-71
2023/01/26 07:47:14;;;;;;;;;;;1.60;99.90;;;;;;5050656;28;19913;-71
2023/01/26 07:49:40;;;;;;;;;;;1.60;99.90;;;;;;5057412;28;19909;-71
2023/01/26 07:52:05;;;;;;;;;;;1.60;99.90;;;;;;5056316;28;20285;-72
2023/01/26 07:54:31;;;;;;;;;;;1.70;99.90;;;;;;5055163;28;19917;-71
2023/01/26 07:56:56;;;;;;;;;;;1.80;99.90;;;;;;5045581;28;19909;-72
2023/01/26 07:59:22;;;;;;;;;;;1.70;99.90;;;;;;5054397;28;19913;-71
2023/01/26 08:01:48;;;;;;;;;;;1.60;99.90;;;;;;5052611;28;20288;-72
2023/01/26 08:04:13;;;;;;;;;;;1.50;99.90;;;;;;5055709;28;19909;-71
2023/01/26 08:06:38;;;;;;;;;;;1.40;99.90;;;;;;5057849;28;20274;-72
2023/01/26 08:09:04;;;;;;;;;;;1.30;99.90;;;;;;5058826;28;20373;-71
2023/01/26 08:11:29;;;;;;;;;;;1.40;99.90;;;;;;5056570;28;20338;-72
2023/01/26 08:13:55;;;;;;;;;;;1.40;99.90;;;;;;5056807;28;19924;-72
2023/01/26 08:16:20;;;;;;;;;;;1.50;99.90;;;;;;5057943;28;19919;-71
2023/01/26 08:18:46;;;;;;;;;;;1.50;99.90;;;;;;5055838;28;20007;-71
2023/01/26 08:21:13;;;;;;;;;;;1.60;99.90;;;;;;5057083;28;19955;-70
2023/01/26 08:23:38;;;;;;;;;;;1.60;99.90;;;;;;5038984;28;19927;-71
2023/01/26 08:26:05;;;;;;;;;;;1.60;99.90;;;;;;5035512;28;19910;-71
2023/01/26 08:28:31;;;;;;;;;;;1.70;99.90;;;;;;5036756;28;19913;-71
2023/01/26 08:31:02;;;;;;;;;;;1.70;99.90;;;;;;5036604;28;19917;-71
2023/01/26 08:33:29;;;;;;;;;;;1.80;99.90;;;;;;5036562;28;19956;-71
2023/01/26 08:35:59;;;;;;;;;;;1.80;99.90;;;;;;5035304;28;19909;-71
2023/01/26 08:38:24;;;;;;;;;;;1.80;99.90;;;;;;5037842;28;19914;-71
2023/01/26 08:40:50;;;;;;;;;;;1.80;99.90;;;;;;5036776;28;19921;-71
2023/01/26 08:43:16;;;;;;;;;;;1.80;99.90;;;;;;5051808;28;19909;-71
2023/01/26 08:45:41;;;;;;;;;;;1.80;99.90;;;;;;5036288;28;19916;-70
2023/01/26 08:48:07;;;;;;;;;;;1.90;99.90;;;;;;5036435;28;19960;-71
2023/01/26 08:50:32;;;;;;;;;;;2.00;99.90;;;;;;5036243;28;19928;-71
2023/01/26 08:52:58;;;;;;;;;;;2.00;99.90;;;;;;5035025;28;19916;-71
2023/01/26 08:55:23;;;;;;;;;;;2.00;99.90;;;;;;5037835;28;19913;-72
2023/01/26 08:57:53;;;;;;;;;;;1.90;99.90;;;;;;5054222;28;20263;-72
2023/01/26 09:00:19;;;;;;;;;;;1.90;99.90;;;;;;5051983;28;20416;-71
2023/01/26 09:02:45;;;;;;;;;;;2.00;99.90;;;;;;5036337;28;19913;-71
2023/01/26 09:05:10;;;;;;;;;;;1.90;99.90;;;;;;5052262;28;19917;-71
2023/01/26 09:07:36;;;;;;;;;;;1.90;99.90;;;;;;5039905;28;20004;-71
2023/01/26 09:10:01;;;;;;;;;;;1.90;99.90;;;;;;5057741;28;20749;-72
2023/01/26 09:12:26;;;;;;;;;;;1.80;99.90;;;;;;5056255;28;20403;-71
2023/01/26 09:14:52;;;;;;;;;;;1.90;99.90;;;;;;5055858;28;19909;-71
2023/01/26 09:17:17;;;;;;;;;;;2.00;99.90;;;;;;5056013;28;19948;-71
2023/01/26 09:19:43;;;;;;;;;;;2.00;99.90;;;;;;5054809;28;19916;-72
2023/01/26 09:22:08;;;;;;;;;;;2.00;99.90;;;;;;5058877;28;19908;-72
2023/01/26 09:24:34;;;;;;;;;;;2.00;99.90;;;;;;5070796;28;19909;-71
2023/01/26 09:26:59;;;;;;;;;;;2.00;99.90;;;;;;5071608;28;19948;-71
2023/01/26 09:29:25;;;;;;;;;;;2.00;99.90;;;;;;5072962;28;19954;-71
2023/01/26 09:31:50;;;;;;;;;;;2.10;99.90;;;;;;5071513;28;19984;-71
2023/01/26 09:34:15;;;;;;;;;;;1.80;99.90;;;;;;5071815;28;19916;-71
2023/01/26 09:36:41;;;;;;;;;;;1.90;99.90;;;;;;5072034;28;19959;-71
2023/01/26 09:39:07;;;;;;;;;;;1.90;99.90;;;;;;5071782;28;19980;-71
2023/01/26 09:41:35;;;;;;;;;;;2.00;99.90;;;;;;5066292;28;19944;-71
2023/01/26 09:44:05;;;;;;;;;;;2.00;99.90;;;;;;5065519;28;20022;-71
2023/01/26 09:46:49;;;;;;;;;;;2.00;99.90;;;;;;5065731;28;20000;-71
2023/01/26 09:49:20;;;;;;;;;;;2.00;99.90;;;;;;5064138;28;19958;-72
2023/01/26 09:51:52;;;;;;;;;;;2.00;99.90;;;;;;5060267;28;19912;-72
2023/01/26 09:54:17;;;;;;;;;;;2.10;99.90;;;;;;5060707;28;19932;-71
2023/01/26 09:56:43;;;;;;;;;;;2.20;99.90;;;;;;5059960;28;19916;-71
2023/01/26 09:59:09;;;;;;;;;;;2.10;99.90;;;;;;5059834;28;19960;-72
2023/01/26 10:01:38;;;;;;;;;;;2.20;99.90;;;;;;5057973;28;19932;-73
2023/01/26 10:04:24;;;;;;;;;;;2.20;99.90;;;;;;5055583;28;19909;-71
2023/01/26 10:06:55;;;;;;;;;;;2.10;99.90;;;;;;5056805;28;19917;-72
2023/01/26 10:09:22;;;;;;;;;;;2.10;99.90;;;;;;5056918;28;19996;-71
2023/01/26 10:11:59;;;;;;;;;;;2.10;99.90;;;;;;5057219;28;19935;-71
2023/01/26 10:14:41;;;;;;;;;;;2.10;99.90;;;;;;5056576;28;20252;-71
2023/01/26 10:17:13;;;;;;;;;;;2.00;99.90;;;;;;5059367;28;19917;-72
2023/01/26 10:19:53;;;;;;;;;;;2.00;99.90;;;;;;5056884;28;20406;-72
2023/01/26 10:22:31;;;;;;;;;;;2.00;99.90;;;;;;5059080;28;19953;-72
2023/01/26 10:24:58;;;;;;;;;;;2.10;99.90;;;;;;5060085;28;21271;-72
2023/01/26 10:27:26;;;;;;;;;;;2.10;99.90;;;;;;5060301;28;20330;-72
2023/01/26 10:29:51;;;;;;;;;;;2.10;99.90;;;;;;5094520;28;19908;-71
2023/01/26 10:32:17;;;;;;;;;;;2.20;99.90;;;;;;5061527;28;19916;-71
2023/01/26 10:34:44;;;;;;;;;;;2.30;99.90;;;;;;5061719;28;19909;-71
2023/01/26 10:37:19;;;;;;;;;;;2.20;99.90;;;;;;5059258;28;19916;-72
2023/01/26 10:39:55;;;;;;;;;;;2.10;99.90;;;;;;5060088;28;19928;-72
2023/01/26 10:42:26;;;;;;;;;;;1.90;99.90;;;;;;5060787;28;19917;-72
2023/01/26 10:44:52;;;;;;;;;;;1.90;99.90;;;;;;5059225;28;19966;-72
2023/01/26 10:47:18;;;;;;;;;;;1.90;99.90;;;;;;5060091;28;19908;-71
2023/01/26 10:49:44;;;;;;;;;;;2.00;99.90;;;;;;5062029;28;19936;-73
2023/01/26 10:52:23;;;;;;;;;;;2.00;99.90;;;;;;5057335;28;19916;-72
2023/01/26 10:54:53;;;;;;;;;;;2.20;99.90;;;;;;5059922;28;19916;-71
2023/01/26 10:57:26;;;;;;;;;;;2.10;99.90;;;;;;5058590;28;19916;-71
2023/01/26 10:59:59;;;;;;;;;;;2.00;99.90;;;;;;5059109;28;19920;-71
2023/01/26 11:02:26;;;;;;;;;;;2.00;99.90;;;;;;5060480;28;19916;-72
2023/01/26 11:05:07;;;;;;;;;;;2.10;99.90;;;;;;5059682;28;19923;-72
2023/01/26 11:07:43;;;;;;;;;;;2.10;99.90;;;;;;5065039;28;19916;-72
2023/01/26 11:10:44;;;;;;;;;;;2.10;99.90;;;;;;5055202;28;19967;-72
2023/01/26 11:13:18;;;;;;;;;;;2.20;99.90;;;;;;4960028;28;19910;-72
2023/01/26 11:15:48;;;;;;;;;;;2.10;99.90;;;;;;4976026;28;19953;-74
2023/01/26 11:18:16;;;;;;;;;;;2.00;99.90;;;;;;4957943;28;19910;-74
2023/01/26 11:20:42;;;;;;;;;;;1.90;99.90;;;;;;4960049;28;19917;-74
2023/01/26 11:23:25;;;;;;;;;;;2.10;99.90;;;;;;4975889;28;20012;-75
2023/01/26 11:26:03;;;;;;;;;;;2.10;99.90;;;;;;4959874;28;19914;-74
2023/01/26 11:28:41;;;;;;;;;;;2.10;99.90;;;;;;4959308;28;19957;-74
2023/01/26 11:31:15;;;;;;;;;;;2.00;99.90;;;;;;4986939;28;19950;-74
2023/01/26 11:34:13;;;;;;;;;;;2.00;99.90;;;;;;4947998;29;19950;-74
2023/01/26 11:36:54;;;;;;;;;;;2.10;99.90;;;;;;4929128;29;19910;-73
2023/01/26 11:39:25;;;;;;;;;;;2.00;99.90;;;;;;4968267;28;19921;-72
2023/01/26 11:41:50;;;;;;;;;;;2.00;99.90;;;;;;4988372;28;19922;-74
2023/01/26 11:44:21;;;;;;;;;;;2.00;99.90;;;;;;4989064;28;19978;-74
2023/01/26 11:46:53;;;;;;;;;;;2.00;99.90;;;;;;5016734;28;19909;-72
2023/01/26 11:49:19;;;;;;;;;;;2.00;99.90;;;;;;5054765;28;19981;-74
2023/01/26 11:51:54;;;;;;;;;;;2.00;99.90;;;;;;5067155;28;19909;-74
2023/01/26 11:54:33;;;;;;;;;;;1.90;99.90;;;;;;5069589;28;19919;-74
2023/01/26 11:57:09;;;;;;;;;;;1.90;99.90;;;;;;5066780;28;19914;-74
2023/01/26 11:59:58;;;;;;;;;;;1.90;99.90;;;;;;5086920;28;19916;-73
2023/01/26 12:02:29;;;;;;;;;;;1.80;99.90;;;;;;5045246;28;19909;-74
2023/01/26 12:04:57;;;;;;;;;;;1.80;99.90;;;;;;5062062;28;19909;-73
2023/01/26 12:07:28;;;;;;;;;;;1.90;99.90;;;;;;5071815;28;19916;-74
2023/01/26 12:09:55;;;;;;;;;;;1.90;99.90;;;;;;5067733;28;19972;-73
2023/01/26 12:12:20;;;;;;;;;;;1.90;99.90;;;;;;5053609;28;19932;-72
2023/01/26 12:14:49;;;;;;;;;;;2.00;99.90;;;;;;5071462;28;19932;-74
2023/01/26 12:17:34;;;;;;;;;;;2.00;99.90;;;;;;5073298;28;19909;-73
2023/01/26 12:20:11;;;;;;;;;;;2.00;99.90;;;;;;5068150;28;19991;-74
2023/01/26 12:22:38;;;;;;;;;;;2.00;99.90;;;;;;5065611;28;19916;-74
2023/01/26 12:25:23;;;;;;;;;;;2.10;99.90;;;;;;5059604;28;19959;-73
2023/01/26 12:27:54;;;;;;;;;;;2.20;99.90;;;;;;5076654;28;20395;-74
2023/01/26 12:30:27;;;;;;;;;;;2.20;99.90;;;;;;5057426;28;20257;-74
2023/01/26 12:32:52;;;;;;;;;;;2.20;99.90;;;;;;5058363;28;19916;-73
2023/01/26 12:35:25;;;;;;;;;;;2.20;99.90;;;;;;5055808;28;19909;-73
2023/01/26 12:37:58;;;;;;;;;;;2.30;99.90;;;;;;5056640;28;20270;-73
2023/01/26 12:40:35;;;;;;;;;;;2.30;99.90;;;;;;5057132;28;19916;-74
2023/01/26 12:43:27;;;;;;;;;;;2.30;99.90;;;;;;5055748;28;19994;-74
2023/01/26 12:45:54;;;;;;;;;;;2.30;99.90;;;;;;5052348;28;19913;-73
2023/01/26 12:48:26;;;;;;;;;;;2.40;99.90;;;;;;5052887;28;19932;-73
2023/01/26 12:50:55;;;;;;;;;;;2.40;99.90;;;;;;5054966;28;19916;-70
2023/01/26 12:53:31;;;;;;;;;;;2.30;99.90;;;;;;5055609;28;19909;-70
2023/01/26 12:56:12;;;;;;;;;;;2.40;99.90;;;;;;5055111;28;19908;-69
2023/01/26 12:58:47;;;;;;;;;;;2.40;99.90;;;;;;5056661;28;19966;-70
2023/01/26 13:01:14;;;;;;;;;;;2.50;99.90;;;;;;5055480;28;19917;-70
2023/01/26 13:03:44;;;;;;;;;;;2.50;99.90;;;;;;5057597;28;19915;-74
2023/01/26 13:06:13;;;;;;;;;;;2.60;99.90;;;;;;5057384;28;19909;-75
2023/01/26 13:08:57;;;;;;;;;;;2.70;99.90;;;;;;5056138;28;19909;-71
2023/01/26 13:11:40;;;;;;;;;;;2.70;99.90;;;;;;5056250;28;19909;-72
2023/01/26 13:14:26;;;;;;;;;;;2.60;99.90;;;;;;5056768;28;20346;-76
2023/01/26 13:16:51;;;;;;;;;;;2.50;99.90;;;;;;5057450;28;19920;-75
2023/01/26 13:19:50;;;;;;;;;;;2.70;99.90;;;;;;5059912;28;19917;-77
2023/01/26 13:22:22;;;;;;;;;;;2.50;99.90;;;;;;5056282;28;19912;-73
2023/01/26 13:24:48;;;;;;;;;;;2.60;99.90;;;;;;5057817;28;19909;-73
2023/01/26 13:27:29;;;;;;;;;;;2.60;99.90;;;;;;5056005;28;20269;-69
2023/01/26 13:29:55;;;;;;;;;;;2.70;99.90;;;;;;5056869;28;19916;-71
2023/01/26 13:32:20;;;;;;;;;;;2.70;99.90;;;;;;5055086;28;20251;-74
2023/01/26 13:34:48;;;;;;;;;;;2.70;99.90;;;;;;5057710;28;19913;-74
2023/01/26 13:37:16;;;;;;;;;;;2.50;99.90;;;;;;5056931;28;19909;-73
2023/01/26 13:39:45;;;;;;;;;;;2.50;99.90;;;;;;5057939;28;19923;-74
2023/01/26 13:42:15;;;;;;;;;;;2.60;99.90;;;;;;5059321;28;19917;-74
2023/01/26 13:44:44;;;;;;;;;;;2.60;99.90;;;;;;5065072;28;20008;-75
2023/01/26 13:47:17;;;;;;;;;;;2.60;99.90;;;;;;5055551;28;19980;-75
2023/01/26 13:49:43;;;;;;;;;;;2.60;99.90;;;;;;5088050;28;19920;-75
2023/01/26 13:52:26;;;;;;;;;;;2.60;99.90;;;;;;5056263;28;19909;-75
2023/01/26 13:54:53;;;;;;;;;;;2.70;99.90;;;;;;5087752;28;19912;-75
2023/01/26 13:57:23;;;;;;;;;;;2.60;99.90;;;;;;5056491;28;19916;-76
2023/01/26 13:59:49;;;;;;;;;;;2.60;99.90;;;;;;5055345;28;19912;-75
2023/01/26 14:02:25;;;;;;;;;;;2.40;99.90;;;;;;5054069;28;20430;-75
2023/01/26 14:04:56;;;;;;;;;;;2.20;99.90;;;;;;5054167;28;20365;-74
2023/01/26 14:07:24;;;;;;;;;;;2.20;99.90;;;;;;5087407;28;19913;-74
2023/01/26 14:09:51;;;;;;;;;;;2.20;99.90;;;;;;5054021;28;19909;-75
2023/01/26 14:12:20;;;;;;;;;;;2.20;99.90;;;;;;5055107;28;19909;-74
2023/01/26 14:14:46;;;;;;;;;;;2.30;99.90;;;;;;5053763;28;20369;-75
2023/01/26 14:17:23;;;;;;;;;;;2.30;99.90;;;;;;5053629;28;20000;-74
2023/01/26 14:19:49;;;;;;;;;;;2.30;99.90;;;;;;5055279;28;19913;-73
2023/01/26 14:22:16;;;;;;;;;;;2.30;99.90;;;;;;5054769;28;19916;-72
2023/01/26 14:24:46;;;;;;;;;;;2.30;99.90;;;;;;5041223;28;20377;-71
2023/01/26 14:27:20;;;;;;;;;;;2.30;99.90;;;;;;5035065;28;19920;-72
2023/01/26 14:29:46;;;;;;;;;;;2.30;99.90;;;;;;5034639;28;19913;-71
2023/01/26 14:32:15;;;;;;;;;;;2.40;99.90;;;;;;5042779;28;19990;-72
2023/01/26 14:34:50;;;;;;;;;;;2.20;99.90;;;;;;5054141;28;19995;-72
2023/01/26 14:37:16;;;;;;;;;;;2.20;99.90;;;;;;5054934;28;20003;-72
2023/01/26 14:39:43;;;;;;;;;;;2.20;99.90;;;;;;5053144;28;19917;-72
2023/01/26 14:42:19;;;;;;;;;;;2.20;99.90;;;;;;5053915;28;19951;-72
2023/01/26 14:44:45;;;;;;;;;;;2.30;99.90;;;;;;5054865;28;20391;-72
2023/01/26 14:47:16;;;;;;;;;;;2.30;99.90;;;;;;5054396;28;19909;-73
2023/01/26 14:49:56;;;;;;;;;;;2.30;99.90;;;;;;5054766;28;19920;-72
2023/01/26 14:52:24;;;;;;;;;;;2.20;99.90;;;;;;5053113;28;19913;-74
2023/01/26 14:54:54;;;;;;;;;;;2.20;99.90;;;;;;5055911;28;19909;-74
2023/01/26 14:57:21;;;;;;;;;;;2.20;99.90;;;;;;5057761;28;19909;-71
2023/01/26 14:59:48;;;;;;;;;;;2.30;99.90;;;;;;5055072;28;19920;-73
2023/01/26 15:02:15;;;;;;;;;;;2.30;99.90;;;;;;5054131;28;19978;-73
2023/01/26 15:04:42;;;;;;;;;;;2.20;99.90;;;;;;5055759;28;19951;-73
2023/01/26 15:07:40;;;;;;;;;;;2.20;99.90;;;;;;5056728;28;19913;-72
2023/01/26 15:10:24;;;;;;;;;;;2.20;99.90;;;;;;4994830;28;19917;-71
2023/01/26 15:13:00;;;;;;;;;;;2.20;99.90;;;;;;4977612;28;19917;-72
2023/01/26 15:15:27;;;;;;;;;;;2.10;99.90;;;;;;4993130;28;19910;-74
2023/01/26 15:17:59;;;;;;;;;;;2.00;99.90;;;;;;4982249;28;19917;-74
2023/01/26 15:20:25;;;;;;;;;;;1.90;99.90;;;;;;4974361;28;19914;-73
2023/01/26 15:22:51;;;;;;;;;;;2.00;99.90;;;;;;4990325;28;20311;-81
2023/01/26 15:25:18;;;;;;;;;;;2.00;99.90;;;;;;4977993;28;19930;-77